Time;durP1;ratioP1;P1;durP2;ratioP2;P2;SDS_P1;SDS_P2;PMS_P1;PMS_P2;Temp;Humidity;BMP_temperature;BMP_pressure;BME280_temperature;BME280_humidity;BME280_pressure;Samples;Min_cycle;Max_cycle;Signal;HPM_P1;HPM_P2
2021/12/11 00:00:14;;;;;;;11.57;10.77;;;4.00;99.90;;;;;;5015307;28;20200;-75
2021/12/11 00:02:43;;;;;;;11.40;10.80;;;3.90;99.90;;;;;;5023768;28;20204;-75
2021/12/11 00:05:15;;;;;;;11.10;10.50;;;4.00;99.90;;;;;;5027985;28;20216;-76
2021/12/11 00:07:43;;;;;;;11.33;10.53;;;3.90;99.90;;;;;;5025875;28;20545;-76
2021/12/11 00:10:15;;;;;;;10.90;10.20;;;3.90;99.90;;;;;;5003153;28;20266;-75
2021/12/11 00:12:46;;;;;;;10.83;10.03;;;3.90;99.90;;;;;;5023349;28;20200;-75
2021/12/11 00:15:18;;;;;;;11.30;10.60;;;3.90;99.90;;;;;;5018351;28;20192;-76
2021/12/11 00:17:45;;;;;;;11.50;10.70;;;3.90;99.90;;;;;;5025191;28;20247;-75
2021/12/11 00:20:17;;;;;;;11.20;10.60;;;3.90;99.90;;;;;;5021981;28;20216;-75
2021/12/11 00:22:44;;;;;;;11.27;10.60;;;3.90;99.90;;;;;;5012282;28;20696;-76
2021/12/11 00:25:15;;;;;;;11.13;10.50;;;3.90;99.90;;;;;;5026125;28;20262;-75
2021/12/11 00:27:45;;;;;;;11.10;10.50;;;3.90;99.90;;;;;;5001647;28;20255;-76
2021/12/11 00:30:20;;;;;;;11.07;10.47;;;3.90;99.90;;;;;;5013132;28;20668;-76
2021/12/11 00:32:47;;;;;;;10.80;10.20;;;3.90;99.90;;;;;;5004249;28;20617;-76
2021/12/11 00:35:20;;;;;;;10.63;10.03;;;3.90;99.90;;;;;;5029191;28;20195;-75
2021/12/11 00:37:47;;;;;;;10.60;10.00;;;4.00;99.90;;;;;;5007834;28;20200;-75
2021/12/11 00:40:21;;;;;;;10.70;10.10;;;4.00;99.90;;;;;;5016373;28;20200;-76
2021/12/11 00:42:50;;;;;;;10.97;10.37;;;4.00;99.90;;;;;;5029144;28;20272;-75
2021/12/11 00:45:22;;;;;;;10.87;10.07;;;4.00;99.90;;;;;;5018241;28;20209;-76
2021/12/11 00:47:52;;;;;;;10.97;10.37;;;4.00;99.90;;;;;;5024989;28;20192;-76
2021/12/11 00:50:25;;;;;;;10.87;10.27;;;4.00;99.90;;;;;;5018704;28;20279;-75
2021/12/11 00:52:55;;;;;;;11.43;10.70;;;4.00;99.90;;;;;;5000011;28;20200;-76
2021/12/11 00:55:26;;;;;;;11.07;10.47;;;4.00;99.90;;;;;;5018395;28;20243;-75
2021/12/11 00:58:04;;;;;;;10.67;10.07;;;4.00;99.90;;;;;;5028848;28;20669;-76
2021/12/11 01:00:36;;;;;;;10.90;10.30;;;4.00;99.90;;;;;;5013577;28;20235;-76
2021/12/11 01:03:03;;;;;;;10.83;10.23;;;4.00;99.90;;;;;;5005606;28;20262;-75
2021/12/11 01:05:37;;;;;;;4.23;3.20;;;4.00;99.90;;;;;;5023002;28;20208;-75
2021/12/11 01:08:20;;;;;;;10.70;10.10;;;4.00;99.90;;;;;;5021142;28;20223;-76
2021/12/11 01:10:52;;;;;;;10.70;10.10;;;4.00;99.90;;;;;;5020017;28;20224;-75
2021/12/11 01:13:25;;;;;;;8.33;7.83;;;4.00;99.90;;;;;;5023712;28;20736;-75
2021/12/11 01:15:56;;;;;;;11.10;10.50;;;4.00;99.90;;;;;;5029808;28;20431;-75
2021/12/11 01:18:34;;;;;;;11.30;10.37;;;4.00;99.90;;;;;;5030509;28;20262;-75
2021/12/11 01:21:09;;;;;;;10.80;10.10;;;4.10;99.90;;;;;;5027729;28;20270;-75
2021/12/11 01:23:56;;;;;;;11.10;10.50;;;4.10;99.90;;;;;;5015240;28;20199;-75
2021/12/11 01:26:25;;;;;;;11.13;10.53;;;4.00;99.90;;;;;;5024988;28;20204;-75
2021/12/11 01:28:53;;;;;;;11.07;10.37;;;4.00;99.90;;;;;;5025816;28;20665;-76
2021/12/11 01:31:24;;;;;;;11.00;10.40;;;4.10;99.90;;;;;;5022302;28;20217;-75
2021/12/11 01:33:53;;;;;;;11.20;10.50;;;4.10;99.90;;;;;;5025220;28;20193;-76
2021/12/11 01:36:23;;;;;;;11.20;10.60;;;4.10;99.90;;;;;;5024268;28;20189;-75
2021/12/11 01:38:55;;;;;;;11.00;10.30;;;4.10;99.90;;;;;;5008058;28;20200;-76
2021/12/11 01:41:24;;;;;;;10.80;10.20;;;4.10;99.90;;;;;;5008159;28;20220;-75
2021/12/11 01:43:54;;;;;;;10.60;10.00;;;4.10;99.90;;;;;;5007622;28;20196;-76
2021/12/11 01:46:22;;;;;;;10.80;10.10;;;4.10;99.90;;;;;;5004872;28;20652;-75
2021/12/11 01:48:56;;;;;;;10.50;9.90;;;4.10;99.90;;;;;;5025037;28;20214;-75
2021/12/11 01:51:26;;;;;;;10.50;9.80;;;4.10;99.90;;;;;;5017175;28;20223;-75
2021/12/11 01:53:59;;;;;;;10.60;10.00;;;4.10;99.90;;;;;;5008131;28;20196;-75
2021/12/11 01:56:29;;;;;;;10.47;9.87;;;4.10;99.90;;;;;;5024023;28;20262;-75
2021/12/11 01:59:00;;;;;;;10.70;10.10;;;4.10;99.90;;;;;;5018038;28;20197;-75
2021/12/11 02:01:32;;;;;;;10.77;10.07;;;4.10;99.90;;;;;;5025174;28;20215;-75
2021/12/11 02:04:00;;;;;;;10.60;9.90;;;4.10;99.90;;;;;;5021414;28;20693;-76
2021/12/11 02:06:28;;;;;;;10.53;9.90;;;4.10;99.90;;;;;;5016605;28;20216;-75
2021/12/11 02:08:55;;;;;;;10.20;9.60;;;4.10;99.90;;;;;;5025066;28;20568;-75
2021/12/11 02:11:29;;;;;;;10.37;9.87;;;4.10;99.90;;;;;;5015688;28;20228;-76
2021/12/11 02:14:03;;;;;;;10.70;10.00;;;4.10;99.90;;;;;;5021854;28;20222;-75
2021/12/11 02:16:33;;;;;;;10.70;10.10;;;4.10;99.90;;;;;;5023746;28;20199;-76
2021/12/11 02:19:05;;;;;;;10.60;9.90;;;4.10;99.90;;;;;;5007639;28;20188;-76
2021/12/11 02:21:34;;;;;;;10.57;9.87;;;4.10;99.90;;;;;;4995578;28;20611;-76
2021/12/11 02:24:07;;;;;;;10.80;10.20;;;4.10;99.90;;;;;;5033817;28;20200;-75
2021/12/11 02:26:36;;;;;;;10.70;10.10;;;4.10;99.90;;;;;;5012970;28;20213;-76
2021/12/11 02:29:09;;;;;;;11.20;10.60;;;4.20;99.90;;;;;;5023910;28;20201;-75
2021/12/11 02:31:42;;;;;;;11.07;10.47;;;4.20;99.90;;;;;;5010555;28;20216;-76
2021/12/11 02:34:15;;;;;;;10.70;10.10;;;4.20;99.90;;;;;;5022258;28;20204;-75
2021/12/11 02:36:45;;;;;;;11.20;10.40;;;4.10;99.90;;;;;;5003230;28;20189;-75
2021/12/11 02:39:21;;;;;;;11.37;10.57;;;4.10;99.90;;;;;;5021740;28;20607;-76
2021/12/11 02:41:53;;;;;;;11.20;10.40;;;4.10;99.90;;;;;;5019361;28;20215;-75
2021/12/11 02:44:25;;;;;;;10.77;10.17;;;4.10;99.90;;;;;;5022118;28;20204;-75
2021/12/11 02:46:58;;;;;;;10.60;10.00;;;4.10;99.90;;;;;;5019343;28;20380;-75
2021/12/11 02:49:29;;;;;;;10.80;10.20;;;4.10;99.90;;;;;;5003602;28;20327;-75
2021/12/11 02:52:00;;;;;;;10.90;10.30;;;4.10;99.90;;;;;;5024286;28;20640;-75
2021/12/11 02:54:32;;;;;;;10.93;10.33;;;4.10;99.90;;;;;;5024273;28;20200;-76
2021/12/11 02:57:12;;;;;;;10.47;9.87;;;4.10;99.90;;;;;;5024204;28;20200;-75
2021/12/11 02:59:43;;;;;;;10.90;10.20;;;4.10;99.90;;;;;;5000350;28;20259;-75
2021/12/11 03:02:15;;;;;;;10.60;10.00;;;4.10;99.90;;;;;;4998212;28;20590;-76
2021/12/11 03:04:48;;;;;;;10.80;10.20;;;4.10;99.90;;;;;;5006981;28;20250;-75
2021/12/11 03:07:16;;;;;;;10.70;10.00;;;4.10;99.90;;;;;;5009155;28;20255;-75
2021/12/11 03:09:48;;;;;;;10.47;9.90;;;4.10;99.90;;;;;;5020716;28;20200;-76
2021/12/11 03:12:16;;;;;;;10.50;9.90;;;4.10;99.90;;;;;;5023102;28;20220;-75
2021/12/11 03:14:44;;;;;;;11.03;10.33;;;4.10;99.90;;;;;;5002847;28;20235;-76
2021/12/11 03:17:13;;;;;;;11.10;10.50;;;4.10;99.90;;;;;;4997882;28;20262;-75
2021/12/11 03:19:42;;;;;;;11.23;10.57;;;4.10;99.90;;;;;;5027099;28;20223;-75
2021/12/11 03:22:12;;;;;;;11.20;10.60;;;4.10;99.90;;;;;;4997153;28;20236;-75
2021/12/11 03:24:39;;;;;;;11.03;10.43;;;4.10;99.90;;;;;;4999736;28;20230;-75
2021/12/11 03:27:08;;;;;;;11.23;10.53;;;4.00;99.90;;;;;;5015751;28;20278;-75
2021/12/11 03:29:35;;;;;;;10.63;10.03;;;4.00;99.90;;;;;;5019606;28;20196;-75
2021/12/11 03:32:03;;;;;;;11.50;10.80;;;4.00;99.90;;;;;;4999192;28;20220;-75
2021/12/11 03:34:30;;;;;;;11.27;10.67;;;4.00;99.90;;;;;;5002301;28;20193;-75
2021/12/11 03:37:00;;;;;;;11.53;10.80;;;4.00;99.90;;;;;;5019408;28;20248;-75
2021/12/11 03:39:29;;;;;;;11.07;10.43;;;4.00;99.90;;;;;;4999954;28;20251;-75
2021/12/11 03:41:58;;;;;;;11.27;10.67;;;4.00;99.90;;;;;;5001782;28;20273;-76
2021/12/11 03:44:32;;;;;;;11.20;10.40;;;4.00;99.90;;;;;;5017111;28;20195;-77
2021/12/11 03:47:03;;;;;;;11.63;10.93;;;4.00;99.90;;;;;;4998838;28;20216;-76
2021/12/11 03:49:30;;;;;;;11.60;10.93;;;4.00;99.90;;;;;;5020069;28;20251;-76
2021/12/11 03:51:57;;;;;;;11.27;10.57;;;4.00;99.90;;;;;;5002248;28;20224;-78
2021/12/11 03:54:28;;;;;;;10.87;10.27;;;4.00;99.90;;;;;;5005091;28;20200;-78
2021/12/11 03:56:56;;;;;;;11.37;10.53;;;4.00;99.90;;;;;;5010497;28;20343;-76
2021/12/11 03:59:23;;;;;;;10.90;10.30;;;4.00;99.90;;;;;;5003290;28;20210;-80
2021/12/11 04:01:54;;;;;;;11.30;10.70;;;3.90;99.90;;;;;;5011712;28;20290;-77
2021/12/11 04:04:25;;;;;;;11.20;10.57;;;3.90;99.90;;;;;;5009219;28;20283;-77
2021/12/11 04:06:52;;;;;;;11.53;10.80;;;4.00;99.90;;;;;;5010910;28;20216;-76
2021/12/11 04:09:20;;;;;;;11.50;10.90;;;3.90;99.90;;;;;;5012996;28;20279;-77
2021/12/11 04:11:48;;;;;;;11.60;10.97;;;4.00;99.90;;;;;;5002890;28;20339;-77
2021/12/11 04:14:20;;;;;;;11.40;10.80;;;4.00;99.90;;;;;;5019119;28;20205;-77
2021/12/11 04:16:47;;;;;;;11.30;10.70;;;4.00;99.90;;;;;;5021717;28;20612;-77
2021/12/11 04:19:15;;;;;;;11.30;10.60;;;4.00;99.90;;;;;;5024102;28;20228;-77
2021/12/11 04:21:43;;;;;;;11.23;10.63;;;4.00;99.90;;;;;;5024985;28;20212;-77
2021/12/11 04:24:13;;;;;;;11.20;10.60;;;4.00;99.90;;;;;;5000092;28;20270;-77
2021/12/11 04:26:41;;;;;;;11.33;10.73;;;4.00;99.90;;;;;;5001177;28;20251;-77
2021/12/11 04:29:08;;;;;;;11.00;10.40;;;3.90;99.90;;;;;;5018695;28;20251;-77
2021/12/11 04:31:40;;;;;;;11.07;10.47;;;3.90;99.90;;;;;;5006981;28;20227;-77
2021/12/11 04:34:07;;;;;;;11.23;10.53;;;3.90;99.90;;;;;;5022245;28;20610;-77
2021/12/11 04:36:39;;;;;;;11.17;10.57;;;3.70;99.90;;;;;;5006067;28;20200;-77
2021/12/11 04:39:07;;;;;;;11.20;10.60;;;3.60;99.90;;;;;;5019441;28;20621;-77
2021/12/11 04:41:48;;;;;;;11.10;10.50;;;3.40;99.90;;;;;;5026707;28;20208;-77
2021/12/11 04:44:19;;;;;;;11.10;10.50;;;3.30;99.90;;;;;;5022728;28;20454;-77
2021/12/11 04:46:46;;;;;;;11.20;10.60;;;3.20;99.90;;;;;;5026700;28;20208;-77
2021/12/11 04:49:18;;;;;;;11.20;10.60;;;3.20;99.90;;;;;;5018093;28;20494;-77
2021/12/11 04:51:55;;;;;;;11.13;10.53;;;3.20;99.90;;;;;;5022207;28;20717;-78
2021/12/11 04:54:37;;;;;;;11.70;11.10;;;3.10;99.90;;;;;;5002014;28;20540;-77
2021/12/11 05:00:05;;;;;;;11.70;11.10;;;3.00;99.90;;;;;;5005997;28;20442;-78
2021/12/11 05:03:06;;;;;;;11.77;11.17;;;3.00;99.90;;;;;;5004985;28;20452;-77
2021/12/11 05:05:53;;;;;;;11.50;10.90;;;3.00;99.90;;;;;;5023121;28;20430;-75
2021/12/11 05:11:12;;;;;;;11.63;11.03;;;3.00;99.90;;;;;;4987419;28;20527;-75
2021/12/11 05:13:39;;;;;;;11.60;11.00;;;3.00;99.90;;;;;;5007415;28;20500;-76
2021/12/11 05:16:09;;;;;;;11.47;10.87;;;3.00;99.90;;;;;;5009119;28;20775;-75
2021/12/11 05:18:38;;;;;;;12.10;11.50;;;3.00;99.90;;;;;;5023403;28;20226;-75
2021/12/11 05:21:08;;;;;;;12.20;11.60;;;3.00;99.90;;;;;;5022797;28;20517;-75
2021/12/11 05:23:37;;;;;;;12.03;11.43;;;3.00;99.90;;;;;;5024263;28;20434;-76
2021/12/11 05:26:04;;;;;;;12.30;11.70;;;3.00;99.90;;;;;;5021576;28;20467;-77
2021/12/11 05:28:32;;;;;;;12.63;11.83;;;3.00;99.90;;;;;;5028397;28;20205;-77
2021/12/11 05:31:01;;;;;;;12.03;11.43;;;3.00;99.90;;;;;;5025212;28;20463;-77
2021/12/11 05:33:28;;;;;;;11.90;11.30;;;3.00;99.90;;;;;;4997988;28;20447;-76
2021/12/11 05:35:56;;;;;;;12.20;11.60;;;3.00;99.90;;;;;;5009398;28;20884;-77
2021/12/11 05:38:25;;;;;;;12.73;12.03;;;3.00;99.90;;;;;;5004292;28;20452;-79
2021/12/11 05:40:57;;;;;;;12.50;11.80;;;3.00;99.90;;;;;;5004131;28;20474;-79
2021/12/11 05:43:24;;;;;;;12.87;12.17;;;3.00;99.90;;;;;;5003348;28;20200;-77
2021/12/11 05:45:51;;;;;;;12.53;11.83;;;3.00;99.90;;;;;;5010568;28;20204;-76
2021/12/11 05:48:18;;;;;;;13.00;12.30;;;3.00;99.90;;;;;;5005038;28;20280;-77
2021/12/11 05:50:48;;;;;;;12.90;12.20;;;3.00;99.90;;;;;;5004535;28;20525;-78
2021/12/11 05:53:16;;;;;;;12.50;11.90;;;2.90;99.90;;;;;;5020949;28;20201;-76
2021/12/11 05:55:45;;;;;;;12.93;12.23;;;3.00;99.90;;;;;;5019030;28;20960;-79
2021/12/11 05:58:22;;;;;;;12.90;12.20;;;3.00;99.90;;;;;;4996904;28;20447;-77
2021/12/11 06:00:51;;;;;;;13.40;12.70;;;2.90;99.90;;;;;;4999154;28;20861;-76
2021/12/11 06:03:18;;;;;;;13.23;12.53;;;2.90;99.90;;;;;;5018603;28;20925;-77
2021/12/11 06:05:45;;;;;;;13.33;12.63;;;2.90;99.90;;;;;;4997125;28;20447;-77
2021/12/11 06:08:13;;;;;;;12.90;12.20;;;3.00;99.90;;;;;;4995412;28;20220;-77
2021/12/11 06:10:41;;;;;;;13.00;12.20;;;3.00;99.90;;;;;;4995350;28;20558;-76
2021/12/11 06:13:10;;;;;;;12.90;12.20;;;3.00;99.90;;;;;;5014558;28;20201;-77
2021/12/11 06:15:38;;;;;;;12.87;12.17;;;3.00;99.90;;;;;;5014265;28;20623;-77
2021/12/11 06:18:07;;;;;;;13.00;12.30;;;3.00;99.90;;;;;;4999148;28;20254;-77
2021/12/11 06:20:35;;;;;;;13.07;12.37;;;3.00;99.90;;;;;;5014133;28;20227;-76
2021/12/11 06:23:01;;;;;;;13.50;12.80;;;3.00;99.90;;;;;;5000088;28;20216;-77
2021/12/11 06:25:31;;;;;;;13.30;12.53;;;3.10;99.90;;;;;;5012491;28;20445;-77
2021/12/11 06:27:59;;;;;;;13.70;12.80;;;3.10;99.90;;;;;;4997823;28;20483;-75
2021/12/11 06:30:27;;;;;;;14.30;13.50;;;3.00;99.90;;;;;;5017577;28;20450;-76
2021/12/11 06:32:57;;;;;;;13.33;12.63;;;3.10;99.90;;;;;;5015961;28;20444;-76
2021/12/11 06:35:29;;;;;;;13.40;12.40;;;3.10;99.90;;;;;;4998914;28;20209;-76
2021/12/11 06:37:56;;;;;;;13.53;12.73;;;3.10;99.90;;;;;;4992823;28;20451;-75
2021/12/11 06:40:25;;;;;;;13.70;12.90;;;3.00;99.90;;;;;;5014542;28;20251;-77
2021/12/11 06:42:53;;;;;;;13.40;12.70;;;3.10;99.90;;;;;;4998228;28;20252;-75
2021/12/11 06:45:20;;;;;;;13.40;12.70;;;3.10;99.90;;;;;;5016306;28;20208;-75
2021/12/11 06:47:47;;;;;;;13.33;12.63;;;3.10;99.90;;;;;;5014303;28;20984;-76
2021/12/11 06:50:18;;;;;;;13.53;12.83;;;3.10;99.90;;;;;;4998761;28;20255;-76
2021/12/11 06:52:45;;;;;;;13.80;12.90;;;3.10;99.90;;;;;;5013432;28;20203;-76
2021/12/11 06:55:13;;;;;;;13.27;12.57;;;3.10;99.90;;;;;;5015726;28;20233;-76
2021/12/11 06:57:40;;;;;;;13.67;12.87;;;3.10;99.90;;;;;;4995918;28;20287;-76
2021/12/11 07:00:08;;;;;;;14.30;13.50;;;3.10;99.90;;;;;;4997350;28;20677;-76
2021/12/11 07:02:36;;;;;;;14.77;13.87;;;3.00;99.90;;;;;;4998060;28;20205;-77
2021/12/11 07:05:03;;;;;;;14.50;13.70;;;3.00;99.90;;;;;;4997442;28;20643;-77
2021/12/11 07:07:34;;;;;;;14.40;13.60;;;2.90;99.90;;;;;;5017200;28;20216;-76
2021/12/11 07:10:02;;;;;;;14.20;13.40;;;2.90;99.90;;;;;;4996257;28;20532;-77
2021/12/11 07:12:30;;;;;;;14.90;14.10;;;2.90;99.90;;;;;;4997821;28;20666;-77
2021/12/11 07:14:57;;;;;;;15.33;14.43;;;2.90;99.90;;;;;;4997959;28;20971;-77
2021/12/11 07:17:24;;;;;;;15.13;14.23;;;2.90;99.90;;;;;;5005461;28;20196;-76
2021/12/11 07:19:51;;;;;;;14.87;13.97;;;2.90;99.90;;;;;;5019919;28;20266;-76
2021/12/11 07:22:18;;;;;;;15.17;14.27;;;2.90;99.90;;;;;;5004749;28;20297;-75
2021/12/11 07:24:59;;;;;;;15.40;14.50;;;3.00;99.90;;;;;;5018548;28;20942;-75
2021/12/11 07:27:26;;;;;;;15.20;14.30;;;2.90;99.90;;;;;;5001584;28;20258;-75
2021/12/11 07:29:53;;;;;;;15.43;14.43;;;2.90;99.90;;;;;;5003045;28;20875;-75
2021/12/11 07:32:20;;;;;;;14.40;13.60;;;3.00;99.90;;;;;;5014672;28;20270;-75
2021/12/11 07:34:47;;;;;;;14.93;14.03;;;3.00;99.90;;;;;;5017442;28;20322;-76
2021/12/11 07:37:16;;;;;;;15.60;14.60;;;3.00;99.90;;;;;;5021248;28;20504;-75
2021/12/11 07:39:43;;;;;;;14.57;13.73;;;3.00;99.90;;;;;;5010120;28;20610;-76
2021/12/11 07:42:11;;;;;;;15.70;14.60;;;3.10;99.90;;;;;;5021904;28;20474;-78
2021/12/11 07:44:42;;;;;;;16.03;14.93;;;3.10;99.90;;;;;;5023290;28;20196;-78
2021/12/11 07:47:10;;;;;;;16.07;15.07;;;3.10;99.90;;;;;;5016114;28;20533;-77
2021/12/11 07:49:37;;;;;;;16.53;15.50;;;3.10;99.90;;;;;;5022442;28;20202;-76
2021/12/11 07:52:05;;;;;;;16.73;15.67;;;3.10;99.90;;;;;;5020821;28;20216;-76
2021/12/11 07:54:32;;;;;;;16.50;15.40;;;3.10;99.90;;;;;;5029731;28;21116;-77
2021/12/11 07:56:59;;;;;;;17.23;16.13;;;3.10;99.90;;;;;;5009853;28;20206;-76
2021/12/11 07:59:27;;;;;;;17.20;16.10;;;3.20;99.90;;;;;;5008485;28;20482;-78
2021/12/11 08:01:55;;;;;;;17.50;16.40;;;3.20;99.90;;;;;;5037686;28;20523;-76
2021/12/11 08:04:23;;;;;;;16.97;15.87;;;3.20;99.90;;;;;;5018582;28;20266;-77
2021/12/11 08:06:50;;;;;;;17.23;16.13;;;3.20;99.90;;;;;;5023634;28;20443;-78
2021/12/11 08:09:20;;;;;;;17.80;16.60;;;3.30;99.90;;;;;;5003251;28;20732;-76
2021/12/11 08:11:49;;;;;;;16.97;15.87;;;3.30;99.90;;;;;;5018484;28;20262;-76
2021/12/11 08:14:16;;;;;;;17.17;15.87;;;3.30;99.90;;;;;;5019796;28;20197;-77
2021/12/11 08:16:47;;;;;;;15.53;14.43;;;3.40;99.90;;;;;;5020672;28;20451;-77
2021/12/11 08:19:16;;;;;;;17.10;15.70;;;3.30;99.90;;;;;;5009036;28;20448;-78
2021/12/11 08:21:46;;;;;;;16.53;15.33;;;3.30;99.90;;;;;;5003563;28;20224;-76
2021/12/11 08:24:15;;;;;;;15.53;14.53;;;3.40;99.90;;;;;;5002737;28;20497;-76
2021/12/11 08:26:45;;;;;;;16.43;15.23;;;3.40;99.90;;;;;;5022833;28;20447;-77
2021/12/11 08:29:14;;;;;;;16.40;15.20;;;3.40;99.90;;;;;;5029830;28;20296;-77
2021/12/11 08:31:46;;;;;;;16.50;15.40;;;3.40;99.90;;;;;;5023772;28;20212;-76
2021/12/11 08:34:13;;;;;;;16.87;15.67;;;3.40;99.90;;;;;;5010239;28;20278;-75
2021/12/11 08:36:41;;;;;;;17.53;16.23;;;3.40;99.90;;;;;;5027333;28;20896;-76
2021/12/11 08:39:10;;;;;;;16.77;15.53;;;3.50;99.90;;;;;;5019803;28;20697;-76
2021/12/11 08:41:39;;;;;;;16.33;15.23;;;3.50;99.90;;;;;;5013903;28;20267;-75
2021/12/11 08:44:11;;;;;;;16.80;15.53;;;3.50;99.90;;;;;;5003175;28;20205;-75
2021/12/11 08:46:40;;;;;;;16.73;15.63;;;3.60;99.90;;;;;;5010709;28;20666;-75
2021/12/11 08:49:13;;;;;;;17.67;16.10;;;3.60;99.90;;;;;;5006488;28;20487;-75
2021/12/11 08:51:43;;;;;;;17.10;15.90;;;3.60;99.90;;;;;;5013931;28;20258;-76
2021/12/11 08:54:11;;;;;;;16.23;15.13;;;3.60;99.90;;;;;;5024679;28;20200;-75
2021/12/11 08:56:40;;;;;;;16.10;15.10;;;3.60;99.90;;;;;;5023623;28;20401;-76
2021/12/11 08:59:11;;;;;;;16.67;15.47;;;3.60;99.90;;;;;;5029292;28;20208;-75
2021/12/11 09:01:42;;;;;;;15.73;14.63;;;3.70;99.90;;;;;;5007935;28;20269;-75
2021/12/11 09:04:17;;;;;;;15.43;14.23;;;3.70;99.90;;;;;;5025958;28;20196;-75
2021/12/11 09:06:47;;;;;;;15.83;14.67;;;3.70;99.90;;;;;;5025225;28;20589;-75
2021/12/11 09:09:18;;;;;;;15.40;14.37;;;3.70;99.90;;;;;;5009562;28;20282;-75
2021/12/11 09:11:49;;;;;;;15.37;14.33;;;3.70;99.90;;;;;;5008990;28;21029;-76
2021/12/11 09:14:19;;;;;;;15.40;14.40;;;3.70;99.90;;;;;;5006916;28;20217;-75
2021/12/11 09:16:51;;;;;;;16.07;14.87;;;3.70;99.90;;;;;;5010645;28;20625;-76
2021/12/11 09:19:23;;;;;;;15.37;14.37;;;3.60;99.90;;;;;;5008266;28;20201;-75
2021/12/11 09:21:57;;;;;;;15.30;14.10;;;3.60;99.90;;;;;;5025407;28;20515;-75
2021/12/11 09:24:27;;;;;;;15.73;14.63;;;3.60;99.90;;;;;;5009909;28;20237;-75
2021/12/11 09:26:57;;;;;;;15.40;14.40;;;3.70;99.90;;;;;;5024662;28;20669;-75
2021/12/11 09:29:29;;;;;;;15.07;14.07;;;3.70;99.90;;;;;;5017433;28;20196;-75
2021/12/11 09:32:04;;;;;;;15.70;14.70;;;3.80;99.90;;;;;;5021866;28;20274;-75
2021/12/11 09:34:37;;;;;;;16.20;15.03;;;3.80;99.90;;;;;;5019418;28;20200;-75
2021/12/11 09:37:07;;;;;;;16.40;15.30;;;3.90;99.90;;;;;;5006064;28;20205;-75
2021/12/11 09:39:37;;;;;;;16.80;15.60;;;3.90;99.90;;;;;;5010951;28;20208;-75
2021/12/11 09:42:04;;;;;;;16.10;15.00;;;4.00;99.90;;;;;;5010012;28;20224;-75
2021/12/11 09:44:35;;;;;;;15.33;14.33;;;4.00;99.90;;;;;;5022096;28;20609;-75
2021/12/11 09:47:05;;;;;;;15.17;14.07;;;4.00;99.90;;;;;;5013608;28;20233;-75
2021/12/11 09:49:37;;;;;;;16.33;15.07;;;4.10;99.90;;;;;;5006535;28;20267;-75
2021/12/11 09:52:15;;;;;;;15.80;14.80;;;4.10;99.90;;;;;;5024600;28;20230;-75
2021/12/11 09:54:45;;;;;;;15.67;14.57;;;4.20;99.90;;;;;;5022277;28;20188;-75
2021/12/11 09:57:15;;;;;;;15.57;14.33;;;4.20;99.90;;;;;;5005629;28;20211;-75
2021/12/11 09:59:45;;;;;;;15.27;14.27;;;4.20;99.90;;;;;;5000121;28;20228;-75
2021/12/11 10:02:17;;;;;;;16.10;15.00;;;4.30;99.90;;;;;;5017776;28;20217;-75
2021/12/11 10:04:52;;;;;;;15.53;14.53;;;4.30;99.90;;;;;;4993212;28;20200;-75
2021/12/11 10:07:31;;;;;;;15.60;14.50;;;4.30;99.90;;;;;;5023150;28;20218;-76
2021/12/11 10:10:08;;;;;;;16.20;15.00;;;4.30;99.90;;;;;;5004152;28;20204;-76
2021/12/11 10:12:39;;;;;;;16.57;15.27;;;4.20;99.90;;;;;;5012022;28;20255;-75
2021/12/11 10:15:14;;;;;;;15.77;14.67;;;4.30;99.90;;;;;;5021366;28;20199;-75
2021/12/11 10:17:45;;;;;;;16.17;15.03;;;4.30;99.90;;;;;;5000015;28;20210;-75
2021/12/11 10:20:19;;;;;;;16.20;15.10;;;4.30;99.90;;;;;;5008988;28;20672;-75
2021/12/11 10:22:48;;;;;;;16.37;15.10;;;4.40;99.90;;;;;;5001621;28;20196;-75
2021/12/11 10:25:18;;;;;;;15.00;14.00;;;4.50;99.90;;;;;;5021817;28;20201;-75
2021/12/11 10:27:47;;;;;;;16.00;14.60;;;4.50;99.90;;;;;;5019171;28;20204;-75
2021/12/11 10:30:19;;;;;;;15.33;14.23;;;4.60;99.90;;;;;;5024697;28;20254;-75
2021/12/11 10:32:46;;;;;;;15.20;14.20;;;4.60;99.90;;;;;;5022313;28;20192;-76
2021/12/11 10:35:16;;;;;;;14.53;13.63;;;4.70;99.90;;;;;;5023264;28;20204;-75
2021/12/11 10:37:43;;;;;;;14.80;13.80;;;4.70;99.90;;;;;;5004196;28;20196;-75
2021/12/11 10:40:15;;;;;;;14.73;13.73;;;4.80;99.90;;;;;;5004991;28;20258;-74
2021/12/11 10:42:44;;;;;;;14.73;13.73;;;4.80;99.90;;;;;;5006368;28;20203;-75
2021/12/11 10:45:14;;;;;;;15.53;14.43;;;4.80;99.90;;;;;;5004128;28;20232;-75
2021/12/11 10:47:48;;;;;;;14.97;13.97;;;4.90;99.90;;;;;;5018700;28;20291;-75
2021/12/11 10:50:21;;;;;;;14.80;13.80;;;4.90;99.90;;;;;;5025724;28;20266;-75
2021/12/11 10:52:49;;;;;;;14.37;13.47;;;4.90;99.90;;;;;;5025426;28;20199;-76
2021/12/11 10:55:19;;;;;;;15.70;14.60;;;5.00;99.90;;;;;;4998535;28;20201;-75
2021/12/11 10:57:46;;;;;;;15.07;14.07;;;5.00;99.90;;;;;;5003415;28;20197;-76
2021/12/11 11:00:19;;;;;;;15.30;14.23;;;5.00;99.90;;;;;;5028303;28;20283;-75
2021/12/11 11:02:48;;;;;;;15.00;14.00;;;5.10;99.90;;;;;;4999599;28;20255;-75
2021/12/11 11:05:18;;;;;;;15.33;14.33;;;5.20;99.90;;;;;;5021330;28;20247;-75
2021/12/11 11:07:46;;;;;;;15.87;14.73;;;5.30;99.90;;;;;;5000957;28;20193;-76
2021/12/11 11:10:16;;;;;;;15.60;14.50;;;5.30;99.90;;;;;;5027796;28;20623;-75
2021/12/11 11:12:43;;;;;;;16.87;15.47;;;5.20;99.90;;;;;;5020813;28;20269;-75
2021/12/11 11:15:11;;;;;;;15.30;14.10;;;5.30;99.90;;;;;;5027707;28;20688;-74
2021/12/11 11:17:38;;;;;;;15.83;14.60;;;5.40;99.90;;;;;;5003568;28;20196;-75
2021/12/11 11:20:10;;;;;;;16.13;14.70;;;5.30;99.90;;;;;;5026097;28;20208;-75
2021/12/11 11:22:41;;;;;;;15.30;14.20;;;5.40;99.90;;;;;;4999113;28;20204;-76
2021/12/11 11:25:11;;;;;;;15.57;14.47;;;5.40;99.90;;;;;;5004778;28;20204;-75
2021/12/11 11:27:40;;;;;;;14.90;13.90;;;5.50;99.90;;;;;;5019317;28;20197;-75
2021/12/11 11:30:09;;;;;;;14.97;13.97;;;5.50;99.90;;;;;;5015872;28;20250;-76
2021/12/11 11:32:36;;;;;;;14.70;13.70;;;5.60;99.90;;;;;;5019943;28;20380;-76
2021/12/11 11:35:09;;;;;;;15.20;14.20;;;5.50;99.90;;;;;;5018462;28;20255;-74
2021/12/11 11:37:36;;;;;;;15.00;14.00;;;5.50;99.90;;;;;;4999103;28;20740;-75
2021/12/11 11:40:06;;;;;;;14.60;13.60;;;5.50;99.90;;;;;;4998301;28;20197;-75
2021/12/11 11:42:34;;;;;;;15.30;14.20;;;5.40;99.90;;;;;;5022685;28;20657;-75
2021/12/11 11:45:01;;;;;;;15.27;14.17;;;5.50;99.90;;;;;;5022943;28;20201;-76
2021/12/11 11:47:28;;;;;;;14.97;13.97;;;5.40;99.90;;;;;;5016578;28;20727;-75
2021/12/11 11:49:58;;;;;;;15.20;14.17;;;5.30;99.90;;;;;;5008280;28;20758;-75
2021/12/11 11:52:28;;;;;;;14.57;13.57;;;5.30;99.90;;;;;;4997869;28;20207;-75
2021/12/11 11:55:09;;;;;;;15.20;14.10;;;5.30;99.90;;;;;;4998894;28;20264;-76
2021/12/11 11:57:39;;;;;;;16.03;14.93;;;5.50;99.90;;;;;;5016473;28;20192;-75
2021/12/11 12:00:13;;;;;;;15.27;14.17;;;5.50;99.90;;;;;;5000510;28;20251;-75
2021/12/11 12:02:41;;;;;;;14.20;13.30;;;5.50;99.90;;;;;;5003778;28;20243;-75
2021/12/11 12:05:09;;;;;;;14.43;13.43;;;5.50;99.90;;;;;;5014175;28;20205;-75
2021/12/11 12:07:38;;;;;;;14.60;13.60;;;5.50;99.90;;;;;;5002440;28;20224;-75
2021/12/11 12:10:08;;;;;;;15.87;14.77;;;5.40;99.90;;;;;;5011882;28;20274;-76
2021/12/11 12:12:36;;;;;;;15.80;14.70;;;5.40;99.90;;;;;;5017642;28;20258;-75
2021/12/11 12:15:06;;;;;;;15.67;14.47;;;5.30;99.90;;;;;;5010138;28;20223;-75
2021/12/11 12:17:34;;;;;;;15.03;13.93;;;5.20;99.90;;;;;;5004926;28;20208;-76
2021/12/11 12:20:04;;;;;;;15.00;14.00;;;5.10;99.90;;;;;;5022868;28;20196;-75
2021/12/11 12:22:31;;;;;;;15.53;14.43;;;5.00;99.90;;;;;;5017092;28;20553;-75
2021/12/11 12:25:02;;;;;;;15.70;14.60;;;4.90;99.90;;;;;;5001561;28;20295;-75
2021/12/11 12:27:33;;;;;;;15.03;13.83;;;4.90;99.90;;;;;;5019504;28;20274;-75
2021/12/11 12:30:01;;;;;;;15.33;14.23;;;4.90;99.90;;;;;;5002472;28;20637;-74
2021/12/11 12:32:32;;;;;;;15.73;14.63;;;4.90;99.90;;;;;;5016159;28;20243;-75
2021/12/11 12:35:03;;;;;;;15.43;14.33;;;4.90;99.90;;;;;;4999835;28;20761;-74
2021/12/11 12:37:30;;;;;;;15.33;14.23;;;4.90;99.90;;;;;;5021254;28;20204;-76
2021/12/11 12:40:01;;;;;;;14.90;13.90;;;5.00;99.90;;;;;;5005479;28;20224;-77
2021/12/11 12:42:34;;;;;;;15.90;14.80;;;5.10;99.90;;;;;;5019488;28;20200;-76
2021/12/11 12:45:08;;;;;;;15.43;14.30;;;5.10;99.90;;;;;;5025904;28;20283;-76
2021/12/11 12:47:39;;;;;;;14.73;13.63;;;5.20;99.90;;;;;;5005787;28;20200;-76
2021/12/11 12:50:11;;;;;;;15.43;14.23;;;5.20;99.90;;;;;;5018682;28;20259;-76
2021/12/11 12:52:42;;;;;;;15.30;14.10;;;5.30;99.90;;;;;;5011590;28;20189;-76
2021/12/11 12:55:22;;;;;;;15.90;14.30;;;5.30;99.90;;;;;;5024507;28;20200;-75
2021/12/11 12:57:51;;;;;;;14.60;13.50;;;5.30;99.90;;;;;;5026101;28;20192;-76